Time;durP1;ratioP1;P1;durP2;ratioP2;P2;SDS_P1;SDS_P2;PMS_P1;PMS_P2;Temp;Humidity;BMP_temperature;BMP_pressure;BME280_temperature;BME280_humidity;BME280_pressure;Samples;Min_cycle;Max_cycle;Signal;HPM_P1;HPM_P2
2022/10/22 00:01:03;;;;;;;0.82;0.82;;;13.90;99.90;;;;;;4369159;32;20470;-74
2022/10/22 00:03:29;;;;;;;0.77;0.77;;;13.90;99.90;;;;;;4362337;32;20149;-74
2022/10/22 00:05:54;;;;;;;0.50;0.50;;;14.00;99.90;;;;;;4351425;32;20463;-75
2022/10/22 00:08:20;;;;;;;0.98;0.70;;;14.00;99.90;;;;;;4368972;32;20186;-74
2022/10/22 00:10:46;;;;;;;1.02;0.93;;;14.10;99.90;;;;;;4369468;32;20066;-74
2022/10/22 00:13:11;;;;;;;1.15;0.80;;;14.20;99.90;;;;;;4368071;32;20062;-75
2022/10/22 00:15:37;;;;;;;0.77;0.77;;;14.20;99.90;;;;;;4369572;32;20110;-75
2022/10/22 00:18:03;;;;;;;1.20;1.00;;;14.30;99.90;;;;;;4372254;32;20086;-74
2022/10/22 00:20:28;;;;;;;2.55;0.70;;;14.30;99.90;;;;;;4370599;32;20538;-74
2022/10/22 00:22:53;;;;;;;0.90;0.90;;;14.30;99.90;;;;;;4369946;32;20464;-74
2022/10/22 00:25:19;;;;;;;0.60;0.60;;;14.30;99.90;;;;;;4367678;32;20118;-74
2022/10/22 00:27:44;;;;;;;2.28;1.05;;;14.30;99.90;;;;;;4371771;32;20141;-75
2022/10/22 00:30:10;;;;;;;0.60;0.60;;;14.30;99.90;;;;;;4368995;32;20082;-75
2022/10/22 00:32:36;;;;;;;0.35;0.35;;;14.30;99.90;;;;;;4369981;32;20066;-74
2022/10/22 00:35:03;;;;;;;0.68;0.68;;;14.30;99.90;;;;;;4353374;32;20546;-74
2022/10/22 00:37:29;;;;;;;0.85;0.55;;;14.20;99.90;;;;;;4366874;32;20141;-75
2022/10/22 00:39:54;;;;;;;2.05;1.45;;;14.20;99.90;;;;;;4372784;32;20066;-75
2022/10/22 00:42:23;;;;;;;3.55;1.67;;;14.10;99.90;;;;;;4369750;32;20066;-74
2022/10/22 00:45:09;;;;;;;3.95;0.98;;;14.00;99.90;;;;;;4368376;32;20076;-75
2022/10/22 00:47:40;;;;;;;3.12;0.90;;;14.00;99.90;;;;;;4366876;32;20114;-74
2022/10/22 00:50:10;;;;;;;0.70;0.70;;;14.00;99.90;;;;;;4369716;32;20092;-75
2022/10/22 00:52:36;;;;;;;1.42;1.20;;;14.10;99.90;;;;;;4370456;32;20074;-74
2022/10/22 00:55:02;;;;;;;0.73;0.73;;;14.10;99.90;;;;;;4371643;32;20063;-74
2022/10/22 00:57:28;;;;;;;5.45;2.85;;;14.10;99.90;;;;;;4370181;32;20486;-74
2022/10/22 00:59:54;;;;;;;0.73;0.73;;;14.10;99.90;;;;;;4370088;32;20115;-74
2022/10/22 01:02:20;;;;;;;0.57;0.57;;;14.10;99.90;;;;;;4368550;32;20971;-74
2022/10/22 01:04:45;;;;;;;0.47;0.47;;;14.10;99.90;;;;;;4352085;32;20086;-74
2022/10/22 01:07:17;;;;;;;2.33;1.42;;;14.10;99.90;;;;;;4358520;32;20111;-74
2022/10/22 01:10:11;;;;;;;0.60;0.60;;;14.00;99.90;;;;;;4369927;32;20087;-75
2022/10/22 01:12:47;;;;;;;0.82;0.82;;;14.00;99.90;;;;;;4360548;32;20066;-74
2022/10/22 01:15:32;;;;;;;0.82;0.62;;;13.90;99.90;;;;;;4370005;32;20094;-74
2022/10/22 01:18:05;;;;;;;1.50;0.70;;;13.90;99.90;;;;;;4371414;32;20074;-74
2022/10/22 01:20:58;;;;;;;1.45;1.05;;;13.90;99.90;;;;;;4371104;32;20090;-75
2022/10/22 01:24:03;;;;;;;0.73;0.73;;;14.00;99.90;;;;;;4364798;32;20062;-75
2022/10/22 01:26:52;;;;;;;0.82;0.80;;;13.90;99.90;;;;;;4361969;32;20163;-75
2022/10/22 01:29:41;;;;;;;1.25;0.85;;;14.00;99.90;;;;;;4371831;32;20074;-74
2022/10/22 01:32:14;;;;;;;0.88;0.88;;;14.00;99.90;;;;;;4361303;32;20067;-75
2022/10/22 01:34:43;;;;;;;0.60;0.60;;;13.90;99.90;;;;;;4352862;32;20063;-74
2022/10/22 01:37:11;;;;;;;3.05;1.33;;;13.90;99.90;;;;;;4363134;32;20067;-74
2022/10/22 01:39:38;;;;;;;1.80;1.10;;;13.90;99.90;;;;;;4367874;32;20271;-75
2022/10/22 01:42:04;;;;;;;0.95;0.70;;;13.90;99.90;;;;;;4369424;32;20075;-74
2022/10/22 01:44:32;;;;;;;0.57;0.57;;;13.90;99.90;;;;;;4369261;32;20073;-74
2022/10/22 01:47:08;;;;;;;1.00;0.88;;;13.90;99.90;;;;;;4368773;32;20132;-74
2022/10/22 01:49:50;;;;;;;1.25;0.95;;;13.90;99.90;;;;;;4366693;32;20098;-74
2022/10/22 01:52:44;;;;;;;0.40;0.40;;;13.90;99.90;;;;;;4370318;32;20150;-75
2022/10/22 01:55:26;;;;;;;0.40;0.40;;;13.80;99.90;;;;;;4363693;32;20070;-74
2022/10/22 01:58:03;;;;;;;0.50;0.50;;;13.80;99.90;;;;;;4368086;32;20106;-75
2022/10/22 02:00:29;;;;;;;1.00;0.70;;;13.80;99.90;;;;;;4368382;32;20503;-75
2022/10/22 02:03:00;;;;;;;0.70;0.70;;;13.90;99.90;;;;;;4367121;32;20071;-74
2022/10/22 02:05:51;;;;;;;0.95;0.80;;;13.90;99.90;;;;;;4351259;32;20087;-74
2022/10/22 02:08:22;;;;;;;1.35;0.68;;;13.90;99.90;;;;;;4364006;32;20106;-74
2022/10/22 02:10:49;;;;;;;2.97;1.55;;;13.90;99.90;;;;;;4369429;32;20122;-75
2022/10/22 02:13:19;;;;;;;0.75;0.75;;;13.90;99.90;;;;;;4368859;32;20066;-74
2022/10/22 02:15:47;;;;;;;0.98;0.90;;;13.90;99.90;;;;;;4367925;32;20091;-74
2022/10/22 02:18:16;;;;;;;0.60;0.60;;;13.90;99.90;;;;;;4370558;32;20138;-74
2022/10/22 02:20:41;;;;;;;0.70;0.70;;;13.90;99.90;;;;;;4371136;32;20091;-75
2022/10/22 02:23:08;;;;;;;0.98;0.90;;;13.90;99.90;;;;;;4368785;32;20066;-74
2022/10/22 02:25:39;;;;;;;0.75;0.75;;;13.90;99.90;;;;;;4368397;32;20090;-75
2022/10/22 02:28:27;;;;;;;0.85;0.85;;;13.80;99.90;;;;;;4369358;32;20550;-74
2022/10/22 02:30:57;;;;;;;1.08;0.88;;;13.80;99.90;;;;;;4361586;32;20082;-74
2022/10/22 02:33:29;;;;;;;0.98;0.95;;;13.80;99.90;;;;;;4366528;32;20375;-73
2022/10/22 02:35:57;;;;;;;0.52;0.52;;;13.80;99.90;;;;;;4350766;32;20082;-74
2022/10/22 02:38:24;;;;;;;1.27;0.73;;;13.80;99.90;;;;;;4367245;32;20483;-74
2022/10/22 02:40:49;;;;;;;0.75;0.70;;;13.80;99.90;;;;;;4369377;32;20586;-75
2022/10/22 02:43:17;;;;;;;1.58;1.12;;;13.80;99.90;;;;;;4367810;32;20063;-75
2022/10/22 02:45:42;;;;;;;0.70;0.70;;;13.80;99.90;;;;;;4368936;32;20176;-75
2022/10/22 02:48:08;;;;;;;2.35;1.02;;;13.80;99.90;;;;;;4370327;32;20058;-75
2022/10/22 02:50:33;;;;;;;0.80;0.80;;;13.80;99.90;;;;;;4368458;32;20094;-74
2022/10/22 02:52:59;;;;;;;0.68;0.68;;;13.70;99.90;;;;;;4369104;32;20123;-74
2022/10/22 02:55:24;;;;;;;0.50;0.50;;;13.80;99.90;;;;;;4368368;32;20511;-74
2022/10/22 02:57:50;;;;;;;0.55;0.55;;;13.70;99.90;;;;;;4369042;32;20062;-74
2022/10/22 03:00:15;;;;;;;0.60;0.60;;;13.70;99.90;;;;;;4369342;32;20083;-74
2022/10/22 03:02:41;;;;;;;0.75;0.75;;;13.70;99.90;;;;;;4365134;32;20127;-74
2022/10/22 03:05:07;;;;;;;0.85;0.77;;;13.70;99.90;;;;;;4352284;32;20066;-74
2022/10/22 03:07:33;;;;;;;0.82;0.82;;;13.70;99.90;;;;;;4359164;32;20075;-74
2022/10/22 03:09:58;;;;;;;0.40;0.40;;;13.60;99.90;;;;;;4368526;32;20127;-74
2022/10/22 03:12:24;;;;;;;1.75;0.85;;;13.60;99.90;;;;;;4369276;32;20510;-74
2022/10/22 03:14:49;;;;;;;0.55;0.55;;;13.50;99.90;;;;;;4368906;32;20846;-75
2022/10/22 03:17:15;;;;;;;0.70;0.70;;;13.50;99.90;;;;;;4369491;32;20107;-74
2022/10/22 03:19:41;;;;;;;1.80;0.75;;;13.50;99.90;;;;;;4370884;32;20089;-75
2022/10/22 03:22:14;;;;;;;0.43;0.43;;;13.50;99.90;;;;;;4373760;32;20518;-74
2022/10/22 03:24:43;;;;;;;0.80;0.80;;;13.50;99.90;;;;;;4370923;32;20522;-75
2022/10/22 03:27:11;;;;;;;0.55;0.55;;;13.50;99.90;;;;;;4371891;32;20082;-75
2022/10/22 03:29:39;;;;;;;0.75;0.75;;;13.50;99.90;;;;;;4370832;32;20444;-75
2022/10/22 03:32:04;;;;;;;1.80;0.80;;;13.60;99.90;;;;;;4373429;32;20083;-74
2022/10/22 03:34:30;;;;;;;2.95;1.00;;;13.70;99.90;;;;;;4354680;32;20078;-74
2022/10/22 03:36:57;;;;;;;0.65;0.65;;;13.70;99.90;;;;;;4361532;32;20067;-74
2022/10/22 03:39:23;;;;;;;0.70;0.70;;;13.70;99.90;;;;;;4370629;32;20059;-74
2022/10/22 03:41:51;;;;;;;0.52;0.52;;;13.70;99.90;;;;;;4370077;32;20091;-74
2022/10/22 03:44:17;;;;;;;2.00;0.93;;;13.60;99.90;;;;;;4373586;32;20070;-74
2022/10/22 03:46:43;;;;;;;0.68;0.68;;;13.60;99.90;;;;;;4370895;32;20077;-74
2022/10/22 03:49:09;;;;;;;1.75;0.73;;;13.60;99.90;;;;;;4369023;32;20170;-75
2022/10/22 03:51:35;;;;;;;0.77;0.60;;;13.70;99.90;;;;;;4370797;32;20101;-75
2022/10/22 03:54:01;;;;;;;1.73;1.10;;;13.70;99.90;;;;;;4370427;32;20078;-74
2022/10/22 03:56:26;;;;;;;0.88;0.77;;;13.70;99.90;;;;;;4371523;32;20127;-74
2022/10/22 03:58:57;;;;;;;0.60;0.60;;;13.70;99.90;;;;;;4370354;32;20070;-74
2022/10/22 04:01:23;;;;;;;0.68;0.68;;;13.70;99.90;;;;;;4370743;32;20118;-74
2022/10/22 04:03:48;;;;;;;0.77;0.77;;;13.60;99.90;;;;;;4361082;32;20110;-74
2022/10/22 04:06:14;;;;;;;1.55;1.37;;;13.60;99.90;;;;;;4356457;32;20066;-74
2022/10/22 04:08:41;;;;;;;2.05;0.88;;;13.60;99.90;;;;;;4369005;32;20059;-74
2022/10/22 04:11:07;;;;;;;1.02;0.70;;;13.70;99.90;;;;;;4373037;32;20451;-74
2022/10/22 04:13:32;;;;;;;0.43;0.43;;;13.70;99.90;;;;;;4372122;32;20106;-74
2022/10/22 04:16:15;;;;;;;0.80;0.80;;;13.60;99.90;;;;;;4369207;32;20455;-74
2022/10/22 04:18:41;;;;;;;0.60;0.60;;;13.60;99.90;;;;;;4357801;32;20142;-74
2022/10/22 04:21:09;;;;;;;1.00;0.70;;;13.70;99.90;;;;;;4371585;32;20424;-74
2022/10/22 04:23:34;;;;;;;2.37;1.27;;;13.60;99.90;;;;;;4373237;32;20080;-75
2022/10/22 04:26:02;;;;;;;2.62;0.80;;;13.60;99.90;;;;;;4368631;32;20485;-74
2022/10/22 04:28:28;;;;;;;1.55;0.77;;;13.60;99.90;;;;;;4371604;32;20078;-74
2022/10/22 04:30:53;;;;;;;0.80;0.80;;;13.50;99.90;;;;;;4368820;32;20597;-74
2022/10/22 04:33:19;;;;;;;0.70;0.70;;;13.60;99.90;;;;;;4363352;32;20087;-74
2022/10/22 04:35:45;;;;;;;0.95;0.70;;;13.50;99.90;;;;;;4349366;32;20098;-74
2022/10/22 04:38:11;;;;;;;1.65;1.00;;;13.50;99.90;;;;;;4367431;32;20143;-74
2022/10/22 04:40:37;;;;;;;1.58;1.25;;;13.50;99.90;;;;;;4371807;32;20079;-74
2022/10/22 04:43:02;;;;;;;2.33;0.73;;;13.50;99.90;;;;;;4372183;32;20412;-75
2022/10/22 04:45:28;;;;;;;1.40;0.90;;;13.50;99.90;;;;;;4368982;32;20086;-74
2022/10/22 04:47:53;;;;;;;0.98;0.50;;;13.50;99.90;;;;;;4370052;32;20510;-74
2022/10/22 04:50:19;;;;;;;0.45;0.45;;;13.50;99.90;;;;;;4368772;32;20080;-74
2022/10/22 04:52:44;;;;;;;0.88;0.80;;;13.40;99.90;;;;;;4369576;32;20059;-75
2022/10/22 04:55:10;;;;;;;0.60;0.60;;;13.40;99.90;;;;;;4370289;32;20090;-74
2022/10/22 04:57:35;;;;;;;12.75;0.50;;;13.30;99.90;;;;;;4368299;32;20079;-74
2022/10/22 05:00:01;;;;;;;1.27;0.93;;;13.30;99.90;;;;;;4369317;32;20194;-74
2022/10/22 05:02:26;;;;;;;0.40;0.40;;;13.40;99.90;;;;;;4368890;32;20067;-74
2022/10/22 05:04:52;;;;;;;0.50;0.50;;;13.40;99.90;;;;;;4351005;32;20067;-74
2022/10/22 05:07:17;;;;;;;4.25;0.98;;;13.40;99.90;;;;;;4359945;32;20066;-74
2022/10/22 05:09:43;;;;;;;2.37;0.95;;;13.40;99.90;;;;;;4369333;32;20101;-74
2022/10/22 05:12:08;;;;;;;0.40;0.40;;;13.40;99.90;;;;;;4369801;32;20082;-74
2022/10/22 05:14:34;;;;;;;0.70;0.70;;;13.40;99.90;;;;;;4370810;32;20083;-75
2022/10/22 05:16:59;;;;;;;0.88;0.80;;;13.40;99.90;;;;;;4367676;32;20649;-74
2022/10/22 05:19:28;;;;;;;0.50;0.50;;;13.40;99.90;;;;;;4371245;32;20071;-74
2022/10/22 05:21:56;;;;;;;2.20;0.95;;;13.50;99.90;;;;;;4367818;32;20118;-75
2022/10/22 05:24:22;;;;;;;0.82;0.80;;;13.50;99.90;;;;;;4367201;32;20126;-74
2022/10/22 05:26:49;;;;;;;3.12;1.30;;;13.50;99.90;;;;;;4372120;32;20594;-74
2022/10/22 05:29:15;;;;;;;0.98;0.77;;;13.40;99.90;;;;;;4366705;32;20067;-74
2022/10/22 05:31:40;;;;;;;2.92;0.80;;;13.40;99.90;;;;;;4366864;32;20102;-75
2022/10/22 05:34:06;;;;;;;3.37;0.95;;;13.30;99.90;;;;;;4355853;32;20145;-74
2022/10/22 05:36:31;;;;;;;0.77;0.75;;;13.30;99.90;;;;;;4354740;32;20138;-74
2022/10/22 05:38:57;;;;;;;2.83;1.00;;;13.20;99.90;;;;;;4368383;32;20103;-74
2022/10/22 05:41:24;;;;;;;2.67;1.00;;;13.30;99.90;;;;;;4369696;32;20562;-74
2022/10/22 05:43:50;;;;;;;1.87;1.12;;;13.30;99.90;;;;;;4369015;32;20122;-74
2022/10/22 05:46:18;;;;;;;0.70;0.70;;;13.40;99.90;;;;;;4368780;32;20082;-74
2022/10/22 05:48:48;;;;;;;0.52;0.52;;;13.40;99.90;;;;;;4369234;32;20581;-74
2022/10/22 05:51:13;;;;;;;1.02;0.70;;;13.30;99.90;;;;;;4368486;32;20142;-74
2022/10/22 05:53:41;;;;;;;1.48;1.02;;;13.30;99.90;;;;;;4369686;32;20128;-74
2022/10/22 05:56:10;;;;;;;1.00;0.82;;;13.30;99.90;;;;;;4371705;32;20087;-74
2022/10/22 05:58:36;;;;;;;1.50;1.25;;;13.30;99.90;;;;;;4370047;32;20059;-74
2022/10/22 06:01:04;;;;;;;1.17;1.02;;;13.20;99.90;;;;;;4371531;32;20550;-74
2022/10/22 06:03:30;;;;;;;1.58;1.35;;;13.20;99.90;;;;;;4361544;32;20106;-74
2022/10/22 06:06:01;;;;;;;2.35;1.00;;;13.20;99.90;;;;;;4350865;32;20067;-74
2022/10/22 06:08:27;;;;;;;0.80;0.80;;;13.10;99.90;;;;;;4366060;32;20522;-74
2022/10/22 06:10:53;;;;;;;0.85;0.85;;;13.00;99.90;;;;;;4368216;32;20534;-75
2022/10/22 06:13:18;;;;;;;2.28;0.93;;;13.00;99.90;;;;;;4368128;32;20075;-74
2022/10/22 06:15:44;;;;;;;0.60;0.60;;;13.00;99.90;;;;;;4368003;32;20075;-74
2022/10/22 06:18:10;;;;;;;1.85;1.17;;;13.10;99.90;;;;;;4369403;32;20075;-74
2022/10/22 06:20:35;;;;;;;0.60;0.60;;;13.10;99.90;;;;;;4369246;32;20067;-74
2022/10/22 06:23:01;;;;;;;2.05;1.10;;;13.20;99.90;;;;;;4371038;32;20121;-74
2022/10/22 06:25:26;;;;;;;4.65;1.20;;;13.10;99.90;;;;;;4369887;32;20087;-75
2022/10/22 06:27:51;;;;;;;3.47;0.85;;;13.20;99.90;;;;;;4372563;32;20161;-74
2022/10/22 06:30:17;;;;;;;1.15;0.70;;;13.10;99.90;;;;;;4368617;32;20080;-75
2022/10/22 06:32:42;;;;;;;0.65;0.65;;;13.10;99.90;;;;;;4366758;32;20078;-74
2022/10/22 06:35:08;;;;;;;6.15;1.00;;;13.00;99.90;;;;;;4350605;32;20095;-74
2022/10/22 06:37:33;;;;;;;0.57;0.57;;;13.10;99.90;;;;;;4361404;32;20063;-74
2022/10/22 06:39:59;;;;;;;1.10;0.80;;;13.20;99.90;;;;;;4369521;32;20119;-74
2022/10/22 06:42:24;;;;;;;1.87;0.88;;;13.30;99.90;;;;;;4370660;32;20532;-74
2022/10/22 06:44:50;;;;;;;1.23;0.80;;;13.30;99.90;;;;;;4369040;32;20062;-74
2022/10/22 06:47:15;;;;;;;0.70;0.70;;;13.40;99.90;;;;;;4366983;32;20083;-74
2022/10/22 06:49:41;;;;;;;0.40;0.40;;;13.30;99.90;;;;;;4368350;32;20639;-74
2022/10/22 06:52:07;;;;;;;0.80;0.80;;;13.20;99.90;;;;;;4369581;32;20066;-74
2022/10/22 06:54:32;;;;;;;0.65;0.65;;;13.20;99.90;;;;;;4372685;32;20420;-74
2022/10/22 06:56:57;;;;;;;0.52;0.52;;;13.30;99.90;;;;;;4374358;32;20074;-75
2022/10/22 06:59:23;;;;;;;0.75;0.60;;;13.30;99.90;;;;;;4369459;32;20444;-74
2022/10/22 07:01:48;;;;;;;1.02;0.77;;;13.20;99.90;;;;;;4370349;32;20083;-74
2022/10/22 07:04:14;;;;;;;3.45;1.17;;;13.30;99.90;;;;;;4357307;32;20467;-74
2022/10/22 07:06:39;;;;;;;0.60;0.60;;;13.30;99.90;;;;;;4360292;32;20109;-74
2022/10/22 07:09:05;;;;;;;2.00;1.37;;;13.30;99.90;;;;;;4371846;32;20071;-74
2022/10/22 07:11:38;;;;;;;2.22;0.88;;;13.40;99.90;;;;;;4370912;32;20517;-74
2022/10/22 07:14:04;;;;;;;0.85;0.85;;;13.40;99.90;;;;;;4371904;32;20538;-74
2022/10/22 07:16:29;;;;;;;1.37;1.02;;;13.40;99.90;;;;;;4368288;32;20078;-74
2022/10/22 07:18:55;;;;;;;2.75;1.55;;;13.30;99.90;;;;;;4369440;32;20066;-74
2022/10/22 07:21:21;;;;;;;3.40;0.75;;;13.50;99.90;;;;;;4373854;32;20082;-74
2022/10/22 07:23:47;;;;;;;1.70;0.82;;;13.40;99.90;;;;;;4373280;32;20086;-74
2022/10/22 07:26:14;;;;;;;0.60;0.60;;;13.50;99.90;;;;;;4373056;32;20074;-74
2022/10/22 07:28:40;;;;;;;0.50;0.50;;;13.50;99.90;;;;;;4372169;32;20091;-74
2022/10/22 07:31:08;;;;;;;1.77;1.05;;;13.50;99.90;;;;;;4370415;32;20091;-74
2022/10/22 07:33:34;;;;;;;0.98;0.93;;;13.60;99.90;;;;;;4362932;32;20197;-74
2022/10/22 07:36:02;;;;;;;2.47;0.62;;;13.50;99.90;;;;;;4353709;32;20645;-74
2022/10/22 07:38:28;;;;;;;2.62;0.95;;;13.60;99.90;;;;;;4372197;32;20075;-74
2022/10/22 07:40:53;;;;;;;0.73;0.73;;;13.70;99.90;;;;;;4371283;32;21057;-75
2022/10/22 07:43:19;;;;;;;0.77;0.73;;;13.70;99.90;;;;;;4369839;32;20124;-75
2022/10/22 07:45:44;;;;;;;1.15;0.82;;;13.70;99.90;;;;;;4369445;32;20124;-74
2022/10/22 07:48:10;;;;;;;3.00;0.82;;;13.70;99.90;;;;;;4371002;32;20058;-74
2022/10/22 07:50:35;;;;;;;1.55;0.88;;;13.70;99.90;;;;;;4371467;32;20644;-74
2022/10/22 07:53:01;;;;;;;2.83;0.95;;;13.70;99.90;;;;;;4370953;32;20297;-75
2022/10/22 07:55:26;;;;;;;1.73;0.68;;;13.80;99.90;;;;;;4369859;32;20127;-75
2022/10/22 07:57:52;;;;;;;0.73;0.52;;;13.80;99.90;;;;;;4370182;32;20091;-74
2022/10/22 08:00:19;;;;;;;2.78;0.70;;;13.80;99.90;;;;;;4368683;32;20419;-74
2022/10/22 08:02:44;;;;;;;4.18;0.50;;;13.80;99.90;;;;;;4367541;32;20075;-74
2022/10/22 08:05:12;;;;;;;1.60;1.00;;;13.80;99.90;;;;;;4353066;32;20087;-74
2022/10/22 08:07:37;;;;;;;1.62;0.90;;;13.80;99.90;;;;;;4363257;32;20103;-74
2022/10/22 08:10:03;;;;;;;1.05;0.90;;;13.80;99.90;;;;;;4369207;32;20494;-75
2022/10/22 08:12:29;;;;;;;1.05;1.05;;;13.80;99.90;;;;;;4369390;32;20110;-75
2022/10/22 08:14:54;;;;;;;1.95;0.95;;;13.80;99.90;;;;;;4373342;32;20399;-74
2022/10/22 08:17:20;;;;;;;0.60;0.60;;;13.80;99.90;;;;;;4371634;32;20553;-75
2022/10/22 08:19:45;;;;;;;0.88;0.80;;;13.90;99.90;;;;;;4371074;32;20082;-74
2022/10/22 08:22:11;;;;;;;0.55;0.55;;;13.90;99.90;;;;;;4375955;32;20098;-74
2022/10/22 08:24:36;;;;;;;0.90;0.90;;;14.00;99.90;;;;;;4374431;32;20470;-74
2022/10/22 08:27:02;;;;;;;1.20;0.90;;;14.00;99.90;;;;;;4370660;32;20101;-74
2022/10/22 08:29:27;;;;;;;9.60;1.23;;;14.00;99.90;;;;;;4370659;32;20078;-74
2022/10/22 08:31:53;;;;;;;0.80;0.80;;;14.10;99.90;;;;;;4374632;32;20063;-74
2022/10/22 08:34:18;;;;;;;2.28;1.02;;;14.00;99.90;;;;;;4351879;32;106303;-74
2022/10/22 08:36:44;;;;;;;3.25;1.00;;;14.00;99.90;;;;;;4355981;32;20292;-74
2022/10/22 08:39:09;;;;;;;1.55;0.65;;;14.10;99.90;;;;;;4369941;32;20083;-74
2022/10/22 08:41:47;;;;;;;0.50;0.50;;;14.10;99.90;;;;;;4368885;32;20142;-74
2022/10/22 08:44:46;;;;;;;0.95;0.88;;;14.10;99.90;;;;;;4371089;32;20388;-75
2022/10/22 08:47:29;;;;;;;0.77;0.70;;;14.10;99.90;;;;;;4351679;32;20104;-74
2022/10/22 08:49:57;;;;;;;1.58;0.90;;;14.20;99.90;;;;;;4371064;32;20079;-74
2022/10/22 08:52:23;;;;;;;0.75;0.75;;;14.30;99.90;;;;;;4370981;32;20162;-74
2022/10/22 08:54:57;;;;;;;0.85;0.85;;;14.40;99.90;;;;;;4368438;32;20133;-74
2022/10/22 08:57:46;;;;;;;1.92;0.90;;;14.40;99.90;;;;;;4374548;32;20541;-75
2022/10/22 09:00:19;;;;;;;3.30;1.00;;;14.50;99.90;;;;;;4359796;32;20094;-74
2022/10/22 09:03:25;;;;;;;0.50;0.50;;;14.50;99.90;;;;;;4365640;32;20515;-74
2022/10/22 09:06:13;;;;;;;0.70;0.70;;;14.50;99.90;;;;;;4343772;32;20101;-74
2022/10/22 09:08:41;;;;;;;0.80;0.65;;;14.70;99.90;;;;;;4369348;32;20095;-75
2022/10/22 09:11:25;;;;;;;0.60;0.60;;;14.70;99.90;;;;;;4371139;32;20069;-74
2022/10/22 09:13:53;;;;;;;3.40;1.10;;;14.70;99.90;;;;;;4372320;32;20082;-75
2022/10/22 09:16:31;;;;;;;0.50;0.50;;;14.70;99.90;;;;;;4368464;32;20131;-75
2022/10/22 09:19:22;;;;;;;1.30;0.88;;;14.80;99.90;;;;;;4370274;32;20075;-74
2022/10/22 09:22:15;;;;;;;0.90;0.73;;;14.90;99.90;;;;;;4363153;32;20549;-74
2022/10/22 09:24:46;;;;;;;0.77;0.77;;;14.90;99.90;;;;;;4358961;32;21269;-74
2022/10/22 09:27:18;;;;;;;0.62;0.62;;;14.90;99.90;;;;;;4372072;32;20568;-74
2022/10/22 09:29:45;;;;;;;0.73;0.70;;;15.00;99.90;;;;;;4372086;32;20130;-74
2022/10/22 09:32:11;;;;;;;0.43;0.43;;;15.10;99.90;;;;;;4369296;32;20094;-73
2022/10/22 09:34:37;;;;;;;0.88;0.50;;;15.10;99.90;;;;;;4356116;32;20153;-74
2022/10/22 09:37:08;;;;;;;0.82;0.70;;;15.10;99.90;;;;;;4359105;32;20456;-74
2022/10/22 09:39:38;;;;;;;1.02;0.93;;;15.00;99.90;;;;;;4370080;32;20086;-75
2022/10/22 09:42:05;;;;;;;2.35;1.05;;;15.00;99.90;;;;;;4367424;32;20150;-74
2022/10/22 09:44:34;;;;;;;0.68;0.68;;;15.00;99.90;;;;;;4370576;32;20489;-74
2022/10/22 09:47:17;;;;;;;1.25;0.82;;;15.00;99.90;;;;;;4368457;32;20067;-74
2022/10/22 09:49:42;;;;;;;0.70;0.70;;;15.10;99.90;;;;;;4371748;32;20185;-74
2022/10/22 09:52:26;;;;;;;0.80;0.80;;;15.10;99.90;;;;;;4369257;32;20062;-74
2022/10/22 09:54:51;;;;;;;0.73;0.73;;;15.20;99.90;;;;;;4362419;32;20162;-74
2022/10/22 09:57:21;;;;;;;1.27;0.80;;;15.30;99.90;;;;;;4378219;32;20062;-74
2022/10/22 09:59:49;;;;;;;0.82;0.82;;;15.30;99.90;;;;;;4371489;32;20074;-74
2022/10/22 10:02:19;;;;;;;0.50;0.50;;;15.40;99.90;;;;;;4371863;32;20095;-74
2022/10/22 10:04:49;;;;;;;0.60;0.60;;;15.40;99.90;;;;;;4353183;32;20615;-73
2022/10/22 10:07:18;;;;;;;0.52;0.52;;;15.50;99.90;;;;;;4360354;32;20086;-74
2022/10/22 10:09:44;;;;;;;0.65;0.65;;;15.50;99.90;;;;;;4370743;32;20557;-74
2022/10/22 10:12:20;;;;;;;4.55;1.27;;;15.40;99.90;;;;;;4368377;32;20063;-74
2022/10/22 10:14:55;;;;;;;0.77;0.77;;;15.50;99.90;;;;;;4369005;32;20103;-74
2022/10/22 10:17:47;;;;;;;0.57;0.57;;;15.50;99.90;;;;;;4368847;32;20565;-74
2022/10/22 10:20:24;;;;;;;1.55;0.50;;;15.60;99.90;;;;;;4363403;32;20534;-74
2022/10/22 10:23:02;;;;;;;3.17;0.70;;;15.60;99.90;;;;;;4371214;32;20195;-74
2022/10/22 10:25:34;;;;;;;0.47;0.47;;;15.60;99.90;;;;;;4359052;32;20148;-74
2022/10/22 10:28:13;;;;;;;1.55;0.77;;;15.60;99.90;;;;;;4370513;32;20102;-74
2022/10/22 10:30:53;;;;;;;0.40;0.40;;;15.60;99.90;;;;;;4369700;32;20185;-74
2022/10/22 10:33:28;;;;;;;0.90;0.57;;;15.70;99.90;;;;;;4360564;32;20098;-74
2022/10/22 10:36:05;;;;;;;1.70;1.10;;;15.70;99.90;;;;;;4357733;32;20141;-74
2022/10/22 10:38:55;;;;;;;0.90;0.90;;;15.70;99.90;;;;;;4370569;32;20090;-74
2022/10/22 10:41:32;;;;;;;2.20;1.17;;;15.70;99.90;;;;;;4365141;32;20078;-74
2022/10/22 10:44:19;;;;;;;3.55;0.60;;;15.70;99.90;;;;;;4370668;32;20071;-74
2022/10/22 10:47:00;;;;;;;3.85;1.15;;;15.70;99.90;;;;;;4371225;32;20597;-75
2022/10/22 10:49:31;;;;;;;0.70;0.70;;;15.70;99.90;;;;;;4364309;32;20083;-75
2022/10/22 10:52:09;;;;;;;0.95;0.68;;;15.80;99.90;;;;;;4370253;32;20071;-74
2022/10/22 10:55:01;;;;;;;1.27;0.82;;;15.70;99.90;;;;;;4368173;32;20171;-74
2022/10/22 10:57:42;;;;;;;9.20;2.58;;;15.80;99.90;;;;;;4370963;32;20078;-75
2022/10/22 11:00:19;;;;;;;0.47;0.47;;;16.00;99.90;;;;;;4371157;32;20423;-75
2022/10/22 11:03:14;;;;;;;1.58;0.82;;;16.30;99.90;;;;;;4368558;32;20116;-74
2022/10/22 11:05:54;;;;;;;0.50;0.50;;;16.60;99.90;;;;;;4347568;32;20070;-74
2022/10/22 11:08:40;;;;;;;1.55;0.80;;;16.90;99.90;;;;;;4367243;32;20538;-75
2022/10/22 11:11:31;;;;;;;0.62;0.57;;;17.20;99.90;;;;;;4370969;32;20549;-75
2022/10/22 11:14:08;;;;;;;0.60;0.60;;;17.50;99.90;;;;;;4361037;32;20617;-75
2022/10/22 11:16:45;;;;;;;0.50;0.50;;;17.60;99.90;;;;;;4373409;32;20157;-75
2022/10/22 11:19:29;;;;;;;0.60;0.60;;;17.60;99.90;;;;;;4371789;32;20126;-75
2022/10/22 11:22:08;;;;;;;0.52;0.52;;;17.70;99.90;;;;;;4372900;32;20521;-75
2022/10/22 11:24:42;;;;;;;0.90;0.90;;;17.80;99.90;;;;;;4370029;32;20075;-74
2022/10/22 11:27:36;;;;;;;0.47;0.47;;;17.80;99.90;;;;;;4368064;32;20063;-75
2022/10/22 11:30:09;;;;;;;2.05;0.60;;;18.10;99.90;;;;;;4364265;32;20466;-75
2022/10/22 11:32:36;;;;;;;0.50;0.50;;;18.40;99.90;;;;;;4368753;32;20142;-75
2022/10/22 11:35:05;;;;;;;0.50;0.50;;;18.70;99.90;;;;;;4352403;32;20538;-75
2022/10/22 11:37:34;;;;;;;0.40;0.40;;;19.10;99.90;;;;;;4360842;32;20076;-74
2022/10/22 11:40:19;;;;;;;0.60;0.60;;;19.10;99.90;;;;;;4371467;32;20070;-74
2022/10/22 11:42:56;;;;;;;0.35;0.35;;;19.00;99.90;;;;;;4361818;32;20495;-74
2022/10/22 11:45:25;;;;;;;0.60;0.37;;;19.40;99.90;;;;;;4371560;32;20566;-74
2022/10/22 11:48:05;;;;;;;1.77;0.90;;;19.60;99.90;;;;;;4371040;32;20094;-75
2022/10/22 11:51:00;;;;;;;1.00;0.88;;;19.50;99.90;;;;;;4371644;32;20127;-75
2022/10/22 11:53:36;;;;;;;0.62;0.62;;;19.70;99.90;;;;;;4365357;32;20094;-75
2022/10/22 11:56:22;;;;;;;1.55;0.60;;;20.20;99.90;;;;;;4368336;32;20066;-75
2022/10/22 11:58:48;;;;;;;0.88;0.88;;;20.60;99.90;;;;;;4361444;32;21451;-75
2022/10/22 12:01:20;;;;;;;0.40;0.40;;;20.80;99.90;;;;;;4370366;32;20094;-75
2022/10/22 12:03:51;;;;;;;0.40;0.40;;;20.80;99.90;;;;;;4361750;32;20075;-75
2022/10/22 12:06:21;;;;;;;0.80;0.77;;;21.00;99.90;;;;;;4356678;32;20087;-75
2022/10/22 12:08:53;;;;;;;4.78;0.60;;;21.50;99.90;;;;;;4370505;32;20079;-76
2022/10/22 12:11:36;;;;;;;0.40;0.40;;;21.80;99.90;;;;;;4364138;32;20102;-75
2022/10/22 12:14:26;;;;;;;0.40;0.40;;;22.50;99.90;;;;;;4369095;32;20078;-75
2022/10/22 12:16:57;;;;;;;1.52;0.52;;;22.70;99.90;;;;;;4364656;32;20090;-76
2022/10/22 12:19:27;;;;;;;0.65;0.52;;;22.70;99.90;;;;;;4371143;32;20106;-75
2022/10/22 12:21:57;;;;;;;0.37;0.37;;;22.80;99.90;;;;;;4372210;32;20079;-75
2022/10/22 12:24:25;;;;;;;0.20;0.20;;;23.00;99.90;;;;;;4370670;32;20094;-75
2022/10/22 12:26:51;;;;;;;3.30;1.12;;;23.10;99.90;;;;;;4369906;32;20059;-75
2022/10/22 12:29:18;;;;;;;0.20;0.20;;;23.10;99.90;;;;;;4372103;32;20519;-76
2022/10/22 12:31:46;;;;;;;0.20;0.15;;;23.30;99.90;;;;;;4370120;32;20094;-75
2022/10/22 12:34:15;;;;;;;0.28;0.28;;;23.30;99.90;;;;;;4356953;32;20062;-75
2022/10/22 12:36:41;;;;;;;0.30;0.30;;;23.20;99.90;;;;;;4358169;32;20159;-75
2022/10/22 12:39:14;;;;;;;0.40;0.40;;;23.30;99.90;;;;;;4371386;32;20142;-75
2022/10/22 12:41:40;;;;;;;0.30;0.30;;;23.60;99.90;;;;;;4373101;32;20506;-75
2022/10/22 12:44:06;;;;;;;0.35;0.35;;;23.30;99.90;;;;;;4371821;32;20086;-74
2022/10/22 12:46:34;;;;;;;0.25;0.20;;;23.10;99.90;;;;;;4372471;32;20135;-75
2022/10/22 12:49:03;;;;;;;4.32;1.55;;;23.00;99.90;;;;;;4373304;32;20103;-74
2022/10/22 12:51:29;;;;;;;0.30;0.30;;;22.70;99.90;;;;;;4368996;32;20066;-75
2022/10/22 12:53:58;;;;;;;0.95;0.30;;;22.40;99.90;;;;;;4371305;32;20074;-74
2022/10/22 12:56:27;;;;;;;0.20;0.20;;;22.00;99.90;;;;;;4369988;32;20167;-74
2022/10/22 12:59:06;;;;;;;0.30;0.30;;;21.80;99.90;;;;;;4372095;32;20582;-75
2022/10/22 13:01:37;;;;;;;0.30;0.30;;;21.90;99.90;;;;;;4370322;32;20127;-75
2022/10/22 13:04:18;;;;;;;0.60;0.60;;;21.80;99.90;;;;;;4357586;32;20198;-75